createdAt,value
2018-10-19T00:02:21.269Z,28.50
2018-10-19T00:04:49.737Z,25.87
2018-10-19T00:07:18.559Z,25.83
2018-10-19T00:09:47.028Z,26.23
2018-10-19T00:12:15.524Z,24.77
2018-10-19T00:14:43.977Z,27.50
2018-10-19T00:17:12.537Z,25.97
2018-10-19T00:19:40.934Z,25.67
2018-10-19T00:22:09.346Z,25.87
2018-10-19T00:24:37.790Z,27.90
2018-10-19T00:27:06.243Z,25.83
2018-10-19T00:29:34.697Z,26.30
2018-10-19T00:32:03.179Z,26.77
2018-10-19T00:34:31.671Z,26.50
2018-10-19T00:37:00.051Z,26.00
2018-10-19T00:39:28.460Z,26.03
2018-10-19T00:41:56.899Z,26.87
2018-10-19T00:44:25.348Z,27.67
2018-10-19T00:46:53.858Z,27.40
2018-10-19T00:49:22.310Z,28.10
2018-10-19T00:51:50.725Z,28.47
2018-10-19T00:54:19.237Z,27.37
2018-10-19T00:56:47.769Z,26.50
2018-10-19T00:59:16.205Z,26.17
2018-10-19T01:01:44.650Z,27.30
2018-10-19T01:04:13.066Z,26.90
2018-10-19T01:06:41.493Z,25.43
2018-10-19T01:09:10.432Z,25.83
2018-10-19T01:11:38.864Z,23.30
2018-10-19T01:14:07.489Z,24.97
2018-10-19T01:16:35.901Z,24.10
2018-10-19T01:19:04.385Z,23.83
2018-10-19T01:21:32.811Z,24.20
2018-10-19T01:24:01.268Z,21.17
2018-10-19T01:26:29.834Z,21.33
2018-10-19T01:28:58.345Z,23.07
2018-10-19T01:31:26.751Z,22.70
2018-10-19T01:33:55.196Z,21.43
2018-10-19T01:36:27.972Z,23.60
2018-10-19T01:38:56.446Z,22.97
2018-10-19T01:41:25.473Z,22.47
2018-10-19T01:43:54.412Z,20.37
2018-10-19T01:46:22.888Z,21.50
2018-10-19T01:48:51.327Z,21.43
2018-10-19T01:51:19.745Z,21.70
2018-10-19T01:53:48.183Z,21.00
2018-10-19T01:56:16.634Z,22.20
2018-10-19T01:58:45.077Z,20.13
2018-10-19T02:01:13.504Z,21.77
2018-10-19T02:03:41.924Z,21.87
2018-10-19T02:06:10.371Z,21.30
2018-10-19T02:08:38.804Z,22.13
2018-10-19T02:11:07.352Z,21.53
2018-10-19T02:13:35.693Z,20.90
2018-10-19T02:16:04.206Z,22.33
2018-10-19T02:18:32.651Z,20.57
2018-10-19T02:21:01.091Z,21.87
2018-10-19T02:23:30.338Z,21.93
2018-10-19T02:25:58.768Z,20.73
2018-10-19T02:28:27.241Z,20.80
2018-10-19T02:30:55.706Z,20.60
2018-10-19T02:33:24.182Z,19.10
2018-10-19T02:35:52.630Z,19.70
2018-10-19T02:38:21.067Z,20.57
2018-10-19T02:40:49.509Z,20.03
2018-10-19T02:43:18.110Z,19.60
2018-10-19T02:45:46.581Z,18.90
2018-10-19T02:48:15.021Z,19.17
2018-10-19T02:50:43.465Z,18.17
2018-10-19T02:53:12.013Z,18.83
2018-10-19T02:55:40.403Z,18.00
2018-10-19T02:58:08.843Z,18.97
2018-10-19T03:00:37.370Z,19.30
2018-10-19T03:03:06.049Z,20.00
2018-10-19T03:05:34.508Z,18.10
2018-10-19T03:08:03.001Z,17.10
2018-10-19T03:10:32.832Z,16.83
2018-10-19T03:13:01.690Z,17.50
2018-10-19T03:15:31.709Z,18.97
2018-10-19T03:18:00.185Z,17.67
2018-10-19T03:20:28.652Z,18.43
2018-10-19T03:22:57.120Z,16.93
2018-10-19T03:25:25.560Z,18.20
2018-10-19T03:27:53.983Z,18.40
2018-10-19T03:30:22.476Z,19.20
2018-10-19T03:32:50.946Z,19.37
2018-10-19T03:35:19.411Z,19.77
2018-10-19T03:37:47.837Z,17.47
2018-10-19T03:40:16.316Z,19.00
2018-10-19T03:42:44.760Z,17.90
2018-10-19T03:45:13.271Z,18.87
2018-10-19T03:47:41.741Z,18.83
2018-10-19T03:50:10.202Z,19.43
2018-10-19T03:52:38.657Z,17.83
2018-10-19T03:55:07.953Z,19.17
2018-10-19T03:57:36.415Z,19.17
2018-10-19T04:00:05.226Z,18.87
2018-10-19T04:02:34.146Z,19.23
2018-10-19T04:05:02.616Z,18.33
2018-10-19T04:07:31.113Z,19.13
2018-10-19T04:09:59.533Z,19.63
2018-10-19T04:12:28.006Z,20.17
2018-10-19T04:14:56.473Z,19.70
2018-10-19T04:17:24.896Z,20.10
2018-10-19T04:19:53.352Z,20.30
2018-10-19T04:22:21.776Z,20.23
2018-10-19T04:24:50.205Z,20.27
2018-10-19T04:27:18.739Z,20.10
2018-10-19T04:29:47.121Z,22.53
2018-10-19T04:32:15.629Z,20.77
2018-10-19T04:34:44.147Z,19.67
2018-10-19T04:37:12.618Z,20.23
2018-10-19T04:39:41.095Z,22.47
2018-10-19T04:42:09.632Z,21.43
2018-10-19T04:44:38.073Z,21.57
2018-10-19T04:47:06.663Z,21.97
2018-10-19T04:49:35.613Z,21.20
2018-10-19T04:52:04.175Z,22.83
2018-10-19T04:54:32.692Z,21.27
2018-10-19T04:57:01.214Z,22.30
2018-10-19T04:59:29.675Z,20.43
2018-10-19T05:01:58.130Z,20.43
2018-10-19T05:04:26.635Z,21.37
2018-10-19T05:06:55.092Z,20.37
2018-10-19T05:09:23.571Z,19.30
2018-10-19T05:11:52.001Z,19.30
2018-10-19T05:14:21.026Z,19.67
2018-10-19T05:16:49.461Z,21.33
2018-10-19T05:19:18.103Z,19.80
2018-10-19T05:21:46.549Z,19.63
2018-10-19T05:24:15.015Z,20.07
2018-10-19T05:26:43.456Z,20.93
2018-10-19T05:29:11.943Z,20.03
2018-10-19T05:31:40.440Z,19.27
2018-10-19T05:34:08.911Z,20.27
2018-10-19T05:36:44.018Z,21.13
2018-10-19T05:39:12.521Z,19.63
2018-10-19T05:41:40.994Z,20.53
2018-10-19T05:44:09.469Z,20.03
2018-10-19T05:46:37.920Z,20.53
2018-10-19T05:49:06.434Z,20.33
2018-10-19T05:51:34.894Z,21.63
2018-10-19T05:54:04.078Z,20.33
2018-10-19T05:56:33.658Z,21.40
2018-10-19T05:59:02.169Z,19.37
2018-10-19T06:01:30.573Z,19.73
2018-10-19T06:03:59.021Z,20.30
2018-10-19T06:06:27.462Z,19.27
2018-10-19T06:08:56.245Z,20.43
2018-10-19T06:11:24.690Z,19.63
2018-10-19T06:13:53.214Z,19.03
2018-10-19T06:16:21.637Z,19.43
2018-10-19T06:18:51.321Z,20.73
2018-10-19T06:21:19.766Z,20.70
2018-10-19T06:23:48.212Z,20.40
2018-10-19T06:26:16.711Z,20.87
2018-10-19T06:28:45.186Z,19.87
2018-10-19T06:31:13.628Z,20.67
2018-10-19T06:33:42.145Z,19.63
2018-10-19T06:36:13.758Z,20.43
2018-10-19T06:38:42.242Z,22.27
2018-10-19T06:41:10.824Z,18.73
2018-10-19T06:43:39.279Z,20.30
2018-10-19T06:46:07.710Z,19.57
2018-10-19T06:48:36.249Z,19.57
2018-10-19T06:51:04.681Z,21.10
2018-10-19T06:53:33.190Z,19.13
2018-10-19T06:56:01.965Z,19.47
2018-10-19T06:58:30.412Z,19.50
2018-10-19T07:00:58.941Z,19.83
2018-10-19T07:03:27.538Z,19.03
2018-10-19T07:05:56.037Z,18.53
2018-10-19T07:08:24.469Z,19.37
2018-10-19T07:10:52.978Z,19.00
2018-10-19T07:13:21.477Z,20.67
2018-10-19T07:15:50.008Z,18.27
2018-10-19T07:18:18.445Z,19.30
2018-10-19T07:20:46.877Z,18.23
2018-10-19T07:23:15.475Z,17.73
2018-10-19T07:25:43.841Z,18.27
2018-10-19T07:28:12.386Z,18.00
2018-10-19T07:30:40.855Z,17.23
2018-10-19T07:33:09.394Z,18.00
2018-10-19T07:35:37.866Z,17.73
2018-10-19T07:38:06.988Z,19.20
2018-10-19T07:40:35.407Z,17.13
2018-10-19T07:43:04.080Z,18.60
2018-10-19T07:45:32.526Z,18.93
2018-10-19T07:48:01.187Z,19.13
2018-10-19T07:50:29.956Z,18.93
2018-10-19T07:52:58.458Z,19.07
2018-10-19T07:55:26.916Z,17.73
2018-10-19T07:57:55.421Z,18.23
2018-10-19T08:00:23.918Z,18.63
2018-10-19T08:02:52.413Z,18.13
2018-10-19T08:05:20.895Z,18.03
2018-10-19T08:07:49.356Z,17.47
2018-10-19T08:10:17.835Z,18.67
2018-10-19T08:12:46.276Z,18.27
2018-10-19T08:15:14.707Z,16.60
2018-10-19T08:17:43.182Z,19.33
2018-10-19T08:20:11.857Z,19.20
2018-10-19T08:22:40.502Z,19.37
2018-10-19T08:25:08.985Z,18.80
2018-10-19T08:27:37.472Z,18.90
2018-10-19T08:30:06.024Z,18.70
2018-10-19T08:32:34.435Z,18.67
2018-10-19T08:35:02.959Z,17.43
2018-10-19T08:37:31.513Z,17.70
2018-10-19T08:39:59.942Z,18.97
2018-10-19T08:42:28.378Z,18.17
2018-10-19T08:44:56.890Z,17.97
2018-10-19T08:47:25.326Z,18.17
2018-10-19T08:49:53.776Z,18.60
2018-10-19T08:52:22.247Z,17.43
2018-10-19T08:54:50.793Z,17.87
2018-10-19T08:57:19.269Z,18.97
2018-10-19T08:59:47.785Z,17.60
2018-10-19T09:02:16.622Z,17.60
2018-10-19T09:04:45.065Z,17.00
2018-10-19T09:07:13.577Z,18.50
2018-10-19T09:09:42.071Z,18.00
2018-10-19T09:12:10.602Z,17.53
2018-10-19T09:14:48.136Z,17.77
2018-10-19T09:17:16.639Z,18.57
2018-10-19T09:19:45.520Z,17.93
2018-10-19T09:22:14.624Z,19.43
2018-10-19T09:24:43.356Z,19.23
2018-10-19T09:27:11.859Z,17.80
2018-10-19T09:29:40.418Z,19.40
2018-10-19T09:32:08.821Z,19.03
2018-10-19T09:34:37.514Z,17.07
2018-10-19T09:37:07.405Z,17.90
2018-10-19T09:39:35.873Z,17.77
2018-10-19T09:42:04.585Z,19.53
2018-10-19T09:44:33.146Z,18.13
2018-10-19T09:47:01.654Z,18.70
2018-10-19T09:49:30.139Z,20.07
2018-10-19T09:51:59.266Z,17.23
2018-10-19T09:54:27.976Z,18.10
2018-10-19T09:56:56.513Z,16.10
2018-10-19T09:59:25.793Z,18.50
2018-10-19T10:01:54.283Z,17.57
2018-10-19T10:04:22.765Z,17.13
2018-10-19T10:06:51.210Z,17.03
2018-10-19T10:09:19.722Z,15.83
2018-10-19T10:11:48.177Z,18.83
2018-10-19T10:14:16.813Z,18.67
2018-10-19T10:16:45.330Z,40.33
2018-10-19T10:19:13.842Z,16.93
2018-10-19T10:21:42.219Z,16.63
2018-10-19T10:24:10.700Z,16.70
2018-10-19T10:26:39.173Z,16.47
2018-10-19T10:29:07.662Z,16.87
2018-10-19T10:31:36.431Z,17.40
2018-10-19T10:34:05.488Z,16.90
2018-10-19T10:36:34.107Z,17.30
2018-10-19T10:39:02.955Z,18.03
2018-10-19T10:41:31.377Z,19.07
2018-10-19T10:44:00.247Z,17.50
2018-10-19T10:46:28.729Z,17.70
2018-10-19T10:48:57.276Z,17.53
2018-10-19T10:51:25.725Z,17.50
2018-10-19T10:53:54.216Z,17.73
2018-10-19T10:56:22.729Z,17.50
2018-10-19T10:58:51.185Z,19.17
2018-10-19T11:01:19.664Z,17.57
2018-10-19T11:03:48.438Z,18.30
2018-10-19T11:06:16.920Z,17.33
2018-10-19T11:08:45.361Z,19.13
2018-10-19T11:11:15.088Z,18.43
2018-10-19T11:13:44.134Z,19.37
2018-10-19T11:16:13.396Z,18.83
2018-10-19T11:18:41.984Z,19.53
2018-10-19T11:21:10.521Z,19.23
2018-10-19T11:23:38.921Z,19.10
2018-10-19T11:26:07.365Z,19.00
2018-10-19T11:28:35.863Z,19.83
2018-10-19T11:31:04.891Z,20.03
2018-10-19T11:33:34.087Z,18.17
2018-10-19T11:36:02.547Z,18.97
2018-10-19T11:38:31.047Z,18.70
2018-10-19T11:40:59.442Z,18.80
2018-10-19T11:43:27.942Z,18.30
2018-10-19T11:45:56.484Z,18.60
2018-10-19T11:48:24.918Z,17.67
2018-10-19T11:50:53.413Z,18.83
2018-10-19T11:53:21.875Z,19.40
2018-10-19T11:55:50.316Z,17.80
2018-10-19T11:58:18.828Z,19.33
2018-10-19T12:00:47.279Z,18.90
2018-10-19T12:03:15.702Z,18.10
2018-10-19T12:05:47.148Z,17.43
2018-10-19T12:08:15.696Z,18.57
2018-10-19T12:10:44.279Z,18.10
2018-10-19T12:13:12.670Z,17.27
2018-10-19T12:15:41.032Z,18.70
2018-10-19T12:18:09.521Z,17.73
2018-10-19T12:20:37.999Z,17.40
2018-10-19T12:23:07.330Z,17.93
2018-10-19T12:25:35.814Z,17.87
2018-10-19T12:28:04.597Z,17.77
2018-10-19T12:30:33.108Z,17.80
2018-10-19T12:33:01.551Z,18.10
2018-10-19T12:35:30.096Z,17.93
2018-10-19T12:37:58.528Z,17.80
2018-10-19T12:40:26.932Z,18.70
2018-10-19T12:42:55.441Z,18.93
2018-10-19T12:46:36.288Z,17.90
2018-10-19T12:49:05.086Z,18.17
2018-10-19T12:51:33.748Z,18.70
2018-10-19T12:54:02.244Z,19.00
2018-10-19T12:56:30.738Z,17.83
2018-10-19T12:58:59.182Z,19.97
2018-10-19T13:01:28.645Z,18.73
2018-10-19T13:03:57.542Z,18.60
2018-10-19T13:06:26.019Z,18.53
2018-10-19T13:08:54.668Z,17.73
2018-10-19T13:11:23.439Z,18.00
2018-10-19T13:13:51.998Z,18.50
2018-10-19T13:16:20.498Z,18.97
2018-10-19T13:18:48.938Z,19.50
2018-10-19T13:21:17.427Z,17.87
2018-10-19T13:23:45.888Z,19.60
2018-10-19T13:26:14.380Z,17.90
2018-10-19T13:28:42.899Z,17.67
2018-10-19T13:31:11.344Z,16.93
2018-10-19T13:33:39.797Z,18.37
2018-10-19T13:36:08.253Z,18.73
2018-10-19T13:38:36.721Z,16.73
2018-10-19T13:41:05.235Z,16.87
2018-10-19T13:43:33.827Z,17.87
2018-10-19T13:46:02.262Z,18.10
2018-10-19T13:48:30.756Z,17.57
2018-10-19T13:50:59.324Z,17.00
2018-10-19T13:53:27.818Z,18.80
2018-10-19T13:55:56.284Z,17.77
2018-10-19T13:58:24.777Z,17.20
2018-10-19T14:00:53.209Z,17.57
2018-10-19T14:03:21.668Z,17.80
2018-10-19T14:05:50.164Z,19.30
2018-10-19T14:08:18.702Z,18.63
2018-10-19T14:10:47.128Z,20.07
2018-10-19T14:13:15.636Z,20.90
2018-10-19T14:15:44.143Z,19.60
2018-10-19T14:18:12.838Z,19.37
2018-10-19T14:20:41.386Z,20.47
2018-10-19T14:23:09.946Z,19.53
2018-10-19T14:25:38.363Z,20.87
2018-10-19T14:28:06.962Z,19.60
2018-10-19T14:30:35.467Z,22.27
2018-10-19T14:33:04.098Z,20.53
2018-10-19T14:35:32.565Z,19.17
2018-10-19T14:38:01.379Z,18.90
2018-10-19T14:40:29.855Z,19.40
2018-10-19T14:42:58.359Z,20.03
2018-10-19T14:45:27.513Z,19.10
2018-10-19T14:47:56.060Z,19.47
2018-10-19T14:50:24.766Z,20.63
2018-10-19T14:52:53.327Z,19.20
2018-10-19T14:55:21.834Z,20.10
2018-10-19T14:57:50.366Z,20.37
2018-10-19T15:00:19.503Z,20.13
2018-10-19T15:02:48.775Z,20.97
2018-10-19T15:05:18.477Z,20.67
2018-10-19T15:07:47.065Z,20.50
2018-10-19T15:10:17.783Z,20.40
2018-10-19T15:12:46.090Z,20.93
2018-10-19T15:15:18.346Z,21.27
2018-10-19T15:17:47.033Z,20.67
2018-10-19T15:20:16.153Z,20.33
2018-10-19T15:22:44.910Z,22.23
2018-10-19T15:25:13.505Z,21.67
2018-10-19T15:27:43.499Z,20.47
2018-10-19T15:30:13.445Z,21.37
2018-10-19T15:32:42.076Z,21.63
2018-10-19T15:35:11.024Z,21.53
2018-10-19T15:37:39.853Z,22.03
2018-10-19T15:40:10.446Z,22.73
2018-10-19T15:42:39.994Z,21.33
2018-10-19T15:45:10.737Z,22.47
2018-10-19T15:47:39.418Z,22.83
2018-10-19T15:50:08.457Z,21.37
2018-10-19T15:52:36.952Z,20.53
2018-10-19T15:55:06.349Z,21.50
2018-10-19T15:57:34.829Z,21.17
2018-10-19T16:00:03.508Z,21.80
2018-10-19T16:02:32.696Z,21.37
2018-10-19T16:05:01.155Z,20.63
2018-10-19T16:07:29.624Z,19.73
2018-10-19T16:09:58.109Z,19.53
2018-10-19T16:12:26.580Z,19.90
2018-10-19T16:14:55.091Z,19.97
2018-10-19T16:17:23.601Z,19.87
2018-10-19T16:19:52.099Z,20.63
2018-10-19T16:22:20.574Z,20.57
2018-10-19T16:24:49.070Z,19.87
2018-10-19T16:27:17.807Z,20.63
2018-10-19T16:29:46.130Z,20.97
2018-10-19T16:32:14.658Z,19.60
2018-10-19T16:34:43.191Z,20.27
2018-10-19T16:37:11.648Z,20.37
2018-10-19T16:39:40.157Z,20.40
2018-10-19T16:42:08.768Z,21.40
2018-10-19T16:44:37.166Z,21.67
2018-10-19T16:47:06.543Z,20.87
2018-10-19T16:49:35.050Z,19.40
2018-10-19T16:52:04.519Z,20.20
2018-10-19T16:54:32.948Z,21.33
2018-10-19T16:57:01.464Z,19.23
2018-10-19T16:59:29.904Z,20.73
2018-10-19T17:01:58.378Z,21.43
2018-10-19T17:04:26.854Z,19.87
2018-10-19T17:06:55.798Z,19.17
2018-10-19T17:09:24.301Z,21.53
2018-10-19T17:11:52.799Z,21.87
2018-10-19T17:14:21.325Z,21.17
2018-10-19T17:16:49.804Z,22.00
2018-10-19T17:19:18.263Z,20.73
2018-10-19T17:21:46.822Z,21.63
2018-10-19T17:24:15.444Z,20.63
2018-10-19T17:26:43.908Z,22.60
2018-10-19T17:29:12.567Z,22.13
2018-10-19T17:31:40.997Z,23.50
2018-10-19T17:34:09.514Z,23.10
2018-10-19T17:36:38.008Z,23.57
2018-10-19T17:39:08.816Z,22.57
2018-10-19T17:41:37.401Z,22.87
2018-10-19T17:44:07.205Z,21.17
2018-10-19T17:46:42.305Z,23.03
2018-10-19T17:49:10.847Z,23.20
2018-10-19T17:51:39.314Z,23.57
2018-10-19T17:54:07.936Z,23.30
2018-10-19T17:56:36.470Z,23.70
2018-10-19T17:59:05.163Z,23.07
2018-10-19T18:01:33.772Z,24.77
2018-10-19T18:04:02.617Z,24.40
2018-10-19T18:06:31.190Z,23.47
2018-10-19T18:08:59.751Z,24.27
2018-10-19T18:11:28.212Z,24.73
2018-10-19T18:13:56.796Z,23.83
2018-10-19T18:16:25.525Z,25.20
2018-10-19T18:18:54.003Z,25.90
2018-10-19T18:21:24.763Z,27.77
2018-10-19T18:23:53.227Z,26.37
2018-10-19T18:26:21.729Z,26.40
2018-10-19T18:28:50.208Z,27.97
2018-10-19T18:31:19.309Z,33.60
2018-10-19T18:33:48.609Z,26.83
2018-10-19T18:36:17.116Z,28.10
2018-10-19T18:38:45.699Z,31.13
2018-10-19T18:41:14.261Z,28.07
2018-10-19T18:43:43.518Z,28.53
2018-10-19T18:46:12.007Z,28.13
2018-10-19T18:48:41.610Z,28.60
2018-10-19T18:51:10.102Z,29.47
2018-10-19T18:53:38.610Z,28.00
2018-10-19T18:56:07.127Z,29.87
2018-10-19T18:58:35.708Z,28.97
2018-10-19T19:01:04.321Z,30.03
2018-10-19T19:03:32.828Z,33.03
2018-10-19T19:06:01.337Z,34.50
2018-10-19T19:08:34.209Z,34.87
2018-10-19T19:11:02.866Z,36.83
2018-10-19T19:13:32.880Z,35.13
2018-10-19T19:16:01.780Z,36.60
2018-10-19T19:18:30.323Z,36.23
2018-10-19T19:20:59.387Z,38.63
2018-10-19T19:23:27.902Z,35.83
2018-10-19T19:26:01.825Z,36.13
2018-10-19T19:28:31.035Z,34.93
2018-10-19T19:30:59.533Z,36.27
2018-10-19T19:33:33.354Z,37.77
2018-10-19T19:36:01.884Z,36.73
2018-10-19T19:38:30.493Z,35.37
2018-10-19T19:41:04.368Z,36.83
2018-10-19T19:43:32.843Z,39.73
2018-10-19T19:46:01.431Z,36.93
2018-10-19T19:48:35.961Z,36.40
2018-10-19T19:51:04.664Z,36.03
2018-10-19T19:53:33.246Z,36.50
2018-10-19T19:56:01.926Z,37.60
2018-10-19T19:58:31.176Z,37.93
2018-10-19T20:01:00.861Z,39.53
2018-10-19T20:03:29.836Z,37.93
2018-10-19T20:05:58.483Z,39.40
2018-10-19T20:08:27.110Z,40.40
2018-10-19T20:10:55.822Z,39.00
2018-10-19T20:13:24.614Z,39.13
2018-10-19T20:15:53.156Z,37.80
2018-10-19T20:18:21.877Z,36.17
2018-10-19T20:20:50.905Z,34.43
2018-10-19T20:23:19.941Z,33.80
2018-10-19T20:25:48.648Z,30.27
2018-10-19T20:28:17.823Z,31.27
2018-10-19T20:30:47.312Z,31.30
2018-10-19T20:33:20.493Z,27.30
2018-10-19T20:35:49.049Z,25.33
2018-10-19T20:38:17.763Z,26.23
2018-10-19T20:40:46.599Z,28.17
2018-10-19T20:43:15.096Z,27.83
2018-10-19T20:45:43.647Z,25.80
2018-10-19T20:48:13.626Z,27.37
2018-10-19T20:50:42.938Z,25.13
2018-10-19T20:53:11.734Z,24.07
2018-10-19T20:55:41.166Z,24.80
2018-10-19T20:58:10.046Z,23.70
2018-10-19T21:00:39.197Z,24.50
2018-10-19T21:03:09.641Z,24.40
2018-10-19T21:05:38.147Z,24.33
2018-10-19T21:08:06.947Z,24.03
2018-10-19T21:10:35.530Z,25.13
2018-10-19T21:13:05.057Z,26.43
2018-10-19T21:15:34.821Z,22.77
2018-10-19T21:18:03.453Z,23.10
2018-10-19T21:20:31.929Z,21.93
2018-10-19T21:23:00.421Z,21.23
2018-10-19T21:25:28.841Z,21.80
2018-10-19T21:27:57.357Z,21.87
2018-10-19T21:30:26.041Z,22.60
2018-10-19T21:32:54.540Z,23.03
2018-10-19T21:35:23.650Z,23.07
2018-10-19T21:37:52.226Z,21.83
2018-10-19T21:40:20.760Z,21.33
2018-10-19T21:42:49.350Z,22.60
2018-10-19T21:45:17.848Z,22.57
2018-10-19T21:47:46.350Z,23.37
2018-10-19T21:50:14.952Z,22.73
2018-10-19T21:52:43.410Z,24.77
2018-10-19T21:55:12.348Z,23.50
2018-10-19T21:57:40.902Z,23.40
2018-10-19T22:00:10.443Z,24.53
2018-10-19T22:02:38.916Z,24.33
2018-10-19T22:05:07.849Z,25.60
2018-10-19T22:07:37.390Z,26.93
2018-10-19T22:10:06.562Z,26.67
2018-10-19T22:12:35.622Z,25.13
2018-10-19T22:15:04.332Z,26.63
2018-10-19T22:17:32.830Z,26.23
2018-10-19T22:20:01.442Z,27.43
2018-10-19T22:22:29.983Z,27.77
2018-10-19T22:24:58.476Z,26.47
2018-10-19T22:27:26.968Z,26.53
2018-10-19T22:29:55.419Z,26.13
2018-10-19T22:32:25.146Z,25.67
2018-10-19T22:34:53.613Z,25.60
2018-10-19T22:37:22.086Z,25.83
2018-10-19T22:39:50.862Z,24.33
2018-10-19T22:42:19.886Z,22.67
2018-10-19T22:44:48.370Z,22.37
2018-10-19T22:47:16.930Z,23.10
2018-10-19T22:49:45.365Z,22.80
2018-10-19T22:52:13.833Z,21.50
2018-10-19T22:54:42.352Z,21.00
2018-10-19T22:57:10.822Z,22.03
2018-10-19T22:59:39.289Z,20.53
2018-10-19T23:02:07.782Z,21.63
2018-10-19T23:04:36.317Z,22.73
2018-10-19T23:07:05.125Z,23.57
2018-10-19T23:09:33.548Z,24.23
2018-10-19T23:12:02.012Z,21.40
2018-10-19T23:14:30.545Z,22.73
2018-10-19T23:16:59.703Z,22.87
2018-10-19T23:19:28.164Z,23.97
2018-10-19T23:21:56.679Z,21.57
2018-10-19T23:24:25.119Z,24.00
2018-10-19T23:26:53.558Z,21.90
2018-10-19T23:29:22.041Z,21.70
2018-10-19T23:31:50.492Z,21.53
2018-10-19T23:34:18.984Z,23.23
2018-10-19T23:36:47.427Z,21.87
2018-10-19T23:39:16.639Z,23.17
2018-10-19T23:41:45.103Z,21.80
2018-10-19T23:44:13.507Z,22.47
2018-10-19T23:46:41.905Z,23.37
2018-10-19T23:49:11.091Z,22.77
2018-10-19T23:51:39.436Z,22.53
2018-10-19T23:54:07.870Z,21.57
2018-10-19T23:56:36.399Z,21.70
2018-10-19T23:59:05.258Z,22.03
